sensor_id;sensor_type;location;lat;lon;timestamp;pressure;altitude;pressure_sealevel;temperature;humidity
4085;BME280;2057;50.858;6.572;2023-04-07T00:00:05;100158.22;;;8.61;100.00
4085;BME280;2057;50.858;6.572;2023-04-07T00:02:32;100161.66;;;8.62;100.00
4085;BME280;2057;50.858;6.572;2023-04-07T00:04:57;100170.00;;;8.44;100.00
4085;BME280;2057;50.858;6.572;2023-04-07T00:07:23;100175.22;;;8.47;100.00
4085;BME280;2057;50.858;6.572;2023-04-07T00:09:48;100168.16;;;8.42;100.00
4085;BME280;2057;50.858;6.572;2023-04-07T00:12:13;100173.94;;;8.39;100.00
4085;BME280;2057;50.858;6.572;2023-04-07T00:14:39;100174.88;;;8.41;100.00
4085;BME280;2057;50.858;6.572;2023-04-07T00:17:04;100175.91;;;8.45;100.00
4085;BME280;2057;50.858;6.572;2023-04-07T00:19:30;100177.84;;;8.49;100.00
4085;BME280;2057;50.858;6.572;2023-04-07T00:21:55;100178.00;;;8.52;100.00
4085;BME280;2057;50.858;6.572;2023-04-07T00:24:21;100181.50;;;8.54;100.00
4085;BME280;2057;50.858;6.572;2023-04-07T00:26:46;100173.97;;;8.56;100.00
4085;BME280;2057;50.858;6.572;2023-04-07T00:29:11;100181.41;;;8.53;100.00
4085;BME280;2057;50.858;6.572;2023-04-07T00:31:36;100174.38;;;8.47;100.00
4085;BME280;2057;50.858;6.572;2023-04-07T00:34:02;100175.47;;;8.52;100.00
4085;BME280;2057;50.858;6.572;2023-04-07T00:36:27;100181.25;;;8.50;100.00
4085;BME280;2057;50.858;6.572;2023-04-07T00:38:53;100176.13;;;8.48;100.00
4085;BME280;2057;50.858;6.572;2023-04-07T00:41:18;100177.75;;;8.47;100.00
4085;BME280;2057;50.858;6.572;2023-04-07T00:43:43;100178.28;;;8.42;100.00
4085;BME280;2057;50.858;6.572;2023-04-07T00:46:10;100179.22;;;8.44;100.00
4085;BME280;2057;50.858;6.572;2023-04-07T00:48:36;100176.47;;;8.39;100.00
4085;BME280;2057;50.858;6.572;2023-04-07T00:51:02;100175.66;;;8.40;100.00
4085;BME280;2057;50.858;6.572;2023-04-07T00:53:28;100174.41;;;8.32;100.00
4085;BME280;2057;50.858;6.572;2023-04-07T00:55:53;100173.13;;;8.40;100.00
4085;BME280;2057;50.858;6.572;2023-04-07T00:58:19;100167.78;;;8.34;100.00
4085;BME280;2057;50.858;6.572;2023-04-07T01:00:48;100168.47;;;8.31;100.00
4085;BME280;2057;50.858;6.572;2023-04-07T01:03:25;100164.59;;;8.38;100.00
4085;BME280;2057;50.858;6.572;2023-04-07T01:05:59;100171.63;;;8.44;100.00
4085;BME280;2057;50.858;6.572;2023-04-07T01:11:02;100165.88;;;8.46;100.00
4085;BME280;2057;50.858;6.572;2023-04-07T01:13:35;100168.00;;;8.39;100.00
4085;BME280;2057;50.858;6.572;2023-04-07T01:16:10;100169.38;;;8.48;100.00
4085;BME280;2057;50.858;6.572;2023-04-07T01:18:38;100173.13;;;8.40;100.00
4085;BME280;2057;50.858;6.572;2023-04-07T01:21:13;100173.81;;;8.53;100.00
4085;BME280;2057;50.858;6.572;2023-04-07T01:26:39;100166.66;;;8.45;100.00
4085;BME280;2057;50.858;6.572;2023-04-07T01:31:59;100164.94;;;8.44;100.00
4085;BME280;2057;50.858;6.572;2023-04-07T01:34:28;100159.69;;;8.56;100.00
4085;BME280;2057;50.858;6.572;2023-04-07T01:36:55;100163.72;;;8.53;100.00
4085;BME280;2057;50.858;6.572;2023-04-07T01:39:22;100165.59;;;8.57;100.00
4085;BME280;2057;50.858;6.572;2023-04-07T01:41:49;100167.81;;;8.51;100.00
4085;BME280;2057;50.858;6.572;2023-04-07T01:44:18;100159.72;;;8.41;100.00
4085;BME280;2057;50.858;6.572;2023-04-07T01:46:44;100171.06;;;8.48;100.00
4085;BME280;2057;50.858;6.572;2023-04-07T01:49:11;100171.56;;;8.42;100.00
4085;BME280;2057;50.858;6.572;2023-04-07T01:51:38;100175.75;;;8.42;100.00
4085;BME280;2057;50.858;6.572;2023-04-07T01:54:04;100171.31;;;8.38;100.00
4085;BME280;2057;50.858;6.572;2023-04-07T01:56:30;100173.13;;;8.40;100.00
4085;BME280;2057;50.858;6.572;2023-04-07T01:58:55;100173.63;;;8.33;100.00
4085;BME280;2057;50.858;6.572;2023-04-07T02:01:20;100174.66;;;8.37;100.00
4085;BME280;2057;50.858;6.572;2023-04-07T02:06:20;100173.53;;;8.31;100.00
4085;BME280;2057;50.858;6.572;2023-04-07T02:08:49;100178.91;;;8.38;100.00
4085;BME280;2057;50.858;6.572;2023-04-07T02:11:17;100167.28;;;8.41;100.00
4085;BME280;2057;50.858;6.572;2023-04-07T02:13:45;100167.47;;;8.28;100.00
4085;BME280;2057;50.858;6.572;2023-04-07T02:16:11;100171.72;;;8.45;100.00
4085;BME280;2057;50.858;6.572;2023-04-07T02:18:38;100171.06;;;8.48;100.00
4085;BME280;2057;50.858;6.572;2023-04-07T02:21:04;100174.56;;;8.35;100.00
4085;BME280;2057;50.858;6.572;2023-04-07T02:23:34;100173.31;;;8.43;100.00
4085;BME280;2057;50.858;6.572;2023-04-07T02:26:00;100171.94;;;8.33;100.00
4085;BME280;2057;50.858;6.572;2023-04-07T02:28:25;100175.44;;;8.36;100.00
4085;BME280;2057;50.858;6.572;2023-04-07T02:30:50;100171.84;;;8.47;100.00
4085;BME280;2057;50.858;6.572;2023-04-07T02:33:16;100175.59;;;8.39;100.00
4085;BME280;2057;50.858;6.572;2023-04-07T02:35:41;100171.41;;;8.39;100.00
4085;BME280;2057;50.858;6.572;2023-04-07T02:38:06;100180.41;;;8.34;100.00
4085;BME280;2057;50.858;6.572;2023-04-07T02:40:32;100171.56;;;8.42;100.00
4085;BME280;2057;50.858;6.572;2023-04-07T02:42:57;100176.31;;;8.36;100.00
4085;BME280;2057;50.858;6.572;2023-04-07T02:45:23;100176.63;;;8.42;100.00
4085;BME280;2057;50.858;6.572;2023-04-07T02:47:48;100178.19;;;8.40;100.00
4085;BME280;2057;50.858;6.572;2023-04-07T02:50:14;100179.53;;;8.33;100.00
4085;BME280;2057;50.858;6.572;2023-04-07T02:52:39;100187.28;;;8.37;100.00
4085;BME280;2057;50.858;6.572;2023-04-07T02:55:05;100186.09;;;8.46;100.00
4085;BME280;2057;50.858;6.572;2023-04-07T02:57:31;100185.63;;;8.37;100.00
4085;BME280;2057;50.858;6.572;2023-04-07T02:59:59;100192.88;;;8.31;100.00
4085;BME280;2057;50.858;6.572;2023-04-07T03:02:24;100191.94;;;8.29;100.00
4085;BME280;2057;50.858;6.572;2023-04-07T03:04:50;100189.88;;;8.22;100.00
4085;BME280;2057;50.858;6.572;2023-04-07T03:07:16;100190.22;;;8.28;100.00
4085;BME280;2057;50.858;6.572;2023-04-07T03:09:42;100189.34;;;8.27;100.00
4085;BME280;2057;50.858;6.572;2023-04-07T03:12:07;100191.25;;;8.31;100.00
4085;BME280;2057;50.858;6.572;2023-04-07T03:14:32;100187.03;;;8.32;100.00
4085;BME280;2057;50.858;6.572;2023-04-07T03:16:58;100181.03;;;8.30;100.00
4085;BME280;2057;50.858;6.572;2023-04-07T03:19:23;100184.19;;;8.26;100.00
4085;BME280;2057;50.858;6.572;2023-04-07T03:21:49;100182.91;;;8.18;100.00
4085;BME280;2057;50.858;6.572;2023-04-07T03:24:14;100181.97;;;8.15;100.00
4085;BME280;2057;50.858;6.572;2023-04-07T03:26:39;100181.97;;;8.15;100.00
4085;BME280;2057;50.858;6.572;2023-04-07T03:29:05;100176.00;;;8.15;100.00
4085;BME280;2057;50.858;6.572;2023-04-07T03:31:30;100182.25;;;8.05;100.00
4085;BME280;2057;50.858;6.572;2023-04-07T03:33:56;100186.53;;;8.06;100.00
4085;BME280;2057;50.858;6.572;2023-04-07T03:36:21;100182.50;;;8.10;100.00
4085;BME280;2057;50.858;6.572;2023-04-07T03:38:47;100187.47;;;8.08;100.00
4085;BME280;2057;50.858;6.572;2023-04-07T03:41:12;100182.25;;;8.05;100.00
4085;BME280;2057;50.858;6.572;2023-04-07T03:43:38;100187.47;;;8.08;100.00
4085;BME280;2057;50.858;6.572;2023-04-07T03:46:03;100187.63;;;8.11;100.00
4085;BME280;2057;50.858;6.572;2023-04-07T03:48:28;100183.03;;;8.04;100.00
4085;BME280;2057;50.858;6.572;2023-04-07T03:50:54;100184.06;;;8.08;100.00
4085;BME280;2057;50.858;6.572;2023-04-07T03:53:19;100176.41;;;8.06;100.00
4085;BME280;2057;50.858;6.572;2023-04-07T03:55:45;100187.94;;;8.01;100.00
4085;BME280;2057;50.858;6.572;2023-04-07T03:58:10;100185.50;;;8.03;100.00
4085;BME280;2057;50.858;6.572;2023-04-07T04:00:36;100191.25;;;8.00;100.00
4085;BME280;2057;50.858;6.572;2023-04-07T04:03:02;100193.16;;;8.04;100.00
4085;BME280;2057;50.858;6.572;2023-04-07T04:05:27;100193.69;;;7.98;100.00
4085;BME280;2057;50.858;6.572;2023-04-07T04:07:52;100199.44;;;7.96;100.00
4085;BME280;2057;50.858;6.572;2023-04-07T04:10:18;100201.38;;;7.85;100.00
4085;BME280;2057;50.858;6.572;2023-04-07T04:12:46;100202.09;;;7.82;100.00
4085;BME280;2057;50.858;6.572;2023-04-07T04:15:11;100210.72;;;7.86;100.00
4085;BME280;2057;50.858;6.572;2023-04-07T04:17:36;100202.94;;;7.83;100.00
4085;BME280;2057;50.858;6.572;2023-04-07T04:20:02;100207.84;;;7.80;100.00
4085;BME280;2057;50.858;6.572;2023-04-07T04:22:28;100200.34;;;7.81;100.00
4085;BME280;2057;50.858;6.572;2023-04-07T04:24:53;100207.47;;;7.89;100.00
4085;BME280;2057;50.858;6.572;2023-04-07T04:27:21;100206.06;;;7.94;100.00
4085;BME280;2057;50.858;6.572;2023-04-07T04:29:46;100209.56;;;7.96;100.00
4085;BME280;2057;50.858;6.572;2023-04-07T04:32:13;100216.38;;;7.82;100.00
4085;BME280;2057;50.858;6.572;2023-04-07T04:34:38;100208.34;;;7.89;100.00
4085;BME280;2057;50.858;6.572;2023-04-07T04:37:06;100215.25;;;7.77;100.00
4085;BME280;2057;50.858;6.572;2023-04-07T04:39:31;100216.16;;;7.94;100.00
4085;BME280;2057;50.858;6.572;2023-04-07T04:41:57;100218.22;;;7.84;100.00
4085;BME280;2057;50.858;6.572;2023-04-07T04:44:22;100214.28;;;7.75;100.00
4085;BME280;2057;50.858;6.572;2023-04-07T04:46:47;100224.41;;;7.75;100.00
4085;BME280;2057;50.858;6.572;2023-04-07T04:49:13;100220.75;;;7.69;100.00
4085;BME280;2057;50.858;6.572;2023-04-07T04:51:39;100227.97;;;7.63;100.00
4085;BME280;2057;50.858;6.572;2023-04-07T04:54:05;100223.81;;;7.64;100.00
4085;BME280;2057;50.858;6.572;2023-04-07T04:56:31;100231.00;;;7.73;100.00
4085;BME280;2057;50.858;6.572;2023-04-07T04:58:56;100234.88;;;7.66;100.00
4085;BME280;2057;50.858;6.572;2023-04-07T05:01:21;100242.34;;;7.64;100.00
4085;BME280;2057;50.858;6.572;2023-04-07T05:03:49;100242.59;;;7.69;100.00
4085;BME280;2057;50.858;6.572;2023-04-07T05:06:14;100242.16;;;7.76;100.00
4085;BME280;2057;50.858;6.572;2023-04-07T05:08:40;100238.19;;;7.80;100.00
4085;BME280;2057;50.858;6.572;2023-04-07T05:11:05;100238.25;;;7.81;100.00
4085;BME280;2057;50.858;6.572;2023-04-07T05:13:31;100236.25;;;7.76;100.00
4085;BME280;2057;50.858;6.572;2023-04-07T05:15:56;100243.56;;;7.71;100.00
4085;BME280;2057;50.858;6.572;2023-04-07T05:18:21;100246.63;;;7.80;100.00
4085;BME280;2057;50.858;6.572;2023-04-07T05:20:48;100247.00;;;7.72;100.00
4085;BME280;2057;50.858;6.572;2023-04-07T05:23:14;100248.19;;;7.78;100.00
4085;BME280;2057;50.858;6.572;2023-04-07T05:25:39;100254.53;;;7.87;100.00
4085;BME280;2057;50.858;6.572;2023-04-07T05:28:05;100248.53;;;7.84;100.00
4085;BME280;2057;50.858;6.572;2023-04-07T05:30:30;100260.16;;;7.66;100.00
4085;BME280;2057;50.858;6.572;2023-04-07T05:32:55;100248.44;;;7.68;100.00
4085;BME280;2057;50.858;6.572;2023-04-07T05:35:22;100258.66;;;7.69;100.00
4085;BME280;2057;50.858;6.572;2023-04-07T05:37:48;100257.63;;;7.66;100.00
4085;BME280;2057;50.858;6.572;2023-04-07T05:40:13;100254.56;;;7.72;100.00
4085;BME280;2057;50.858;6.572;2023-04-07T05:42:39;100252.28;;;7.76;100.00
4085;BME280;2057;50.858;6.572;2023-04-07T05:45:05;100252.13;;;7.73;100.00
4085;BME280;2057;50.858;6.572;2023-04-07T05:47:31;100257.25;;;7.75;100.00
4085;BME280;2057;50.858;6.572;2023-04-07T05:49:56;100254.56;;;7.72;100.00
4085;BME280;2057;50.858;6.572;2023-04-07T05:52:21;100261.78;;;7.80;100.00
4085;BME280;2057;50.858;6.572;2023-04-07T05:54:47;100272.16;;;7.70;100.00
4085;BME280;2057;50.858;6.572;2023-04-07T05:57:12;100274.53;;;7.67;100.00
4085;BME280;2057;50.858;6.572;2023-04-07T05:59:37;100272.66;;;7.79;100.00
4085;BME280;2057;50.858;6.572;2023-04-07T06:02:03;100271.44;;;7.73;100.00
4085;BME280;2057;50.858;6.572;2023-04-07T06:04:30;100279.72;;;7.70;100.00
4085;BME280;2057;50.858;6.572;2023-04-07T06:06:55;100272.16;;;7.70;100.00
4085;BME280;2057;50.858;6.572;2023-04-07T06:09:23;100287.75;;;7.63;100.00
4085;BME280;2057;50.858;6.572;2023-04-07T06:11:49;100288.53;;;7.62;100.00
4085;BME280;2057;50.858;6.572;2023-04-07T06:14:15;100294.09;;;7.56;100.00
4085;BME280;2057;50.858;6.572;2023-04-07T06:16:41;100304.38;;;7.59;100.00
4085;BME280;2057;50.858;6.572;2023-04-07T06:19:06;100309.34;;;7.73;100.00
4085;BME280;2057;50.858;6.572;2023-04-07T06:21:32;100304.56;;;7.77;100.00
4085;BME280;2057;50.858;6.572;2023-04-07T06:23:58;100306.56;;;7.68;100.00
4085;BME280;2057;50.858;6.572;2023-04-07T06:26:25;100313.47;;;7.71;100.00
4085;BME280;2057;50.858;6.572;2023-04-07T06:28:52;100323.72;;;7.59;100.00
4085;BME280;2057;50.858;6.572;2023-04-07T06:31:18;100315.88;;;7.69;100.00
4085;BME280;2057;50.858;6.572;2023-04-07T06:33:44;100314.84;;;7.65;100.00
4085;BME280;2057;50.858;6.572;2023-04-07T06:36:10;100317.28;;;7.64;100.00
4085;BME280;2057;50.858;6.572;2023-04-07T06:38:36;100319.34;;;7.56;100.00
4085;BME280;2057;50.858;6.572;2023-04-07T06:41:01;100317.09;;;7.61;100.00
4085;BME280;2057;50.858;6.572;2023-04-07T06:43:26;100320.94;;;7.69;100.00
4085;BME280;2057;50.858;6.572;2023-04-07T06:45:52;100314.16;;;7.83;100.00
4085;BME280;2057;50.858;6.572;2023-04-07T06:48:17;100316.06;;;7.72;100.00
4085;BME280;2057;50.858;6.572;2023-04-07T06:50:48;100325.94;;;7.82;100.00
4085;BME280;2057;50.858;6.572;2023-04-07T06:53:13;100323.31;;;7.66;100.00
4085;BME280;2057;50.858;6.572;2023-04-07T06:55:38;100325.41;;;7.73;100.00
4085;BME280;2057;50.858;6.572;2023-04-07T06:58:04;100330.19;;;7.68;100.00
4085;BME280;2057;50.858;6.572;2023-04-07T07:00:29;100332.28;;;7.76;100.00
4085;BME280;2057;50.858;6.572;2023-04-07T07:02:55;100332.00;;;7.71;100.00
4085;BME280;2057;50.858;6.572;2023-04-07T07:05:21;100344.47;;;7.68;100.00
4085;BME280;2057;50.858;6.572;2023-04-07T07:07:47;100349.50;;;7.68;100.00
4085;BME280;2057;50.858;6.572;2023-04-07T07:10:13;100346.91;;;7.66;100.00
4085;BME280;2057;50.858;6.572;2023-04-07T07:12:38;100346.13;;;7.67;100.00
4085;BME280;2057;50.858;6.572;2023-04-07T07:15:04;100351.63;;;7.75;100.00
4085;BME280;2057;50.858;6.572;2023-04-07T07:17:29;100355.09;;;7.62;100.00
4085;BME280;2057;50.858;6.572;2023-04-07T07:20:00;100356.31;;;7.69;100.00
4085;BME280;2057;50.858;6.572;2023-04-07T07:22:25;100354.84;;;7.73;100.00
4085;BME280;2057;50.858;6.572;2023-04-07T07:24:51;100354.84;;;7.73;100.00
4085;BME280;2057;50.858;6.572;2023-04-07T07:27:16;100358.94;;;7.71;100.00
4085;BME280;2057;50.858;6.572;2023-04-07T07:29:44;100351.97;;;7.81;100.00
4085;BME280;2057;50.858;6.572;2023-04-07T07:32:09;100357.13;;;7.83;100.00
4085;BME280;2057;50.858;6.572;2023-04-07T07:34:35;100370.88;;;7.73;100.00
4085;BME280;2057;50.858;6.572;2023-04-07T07:37:00;100362.69;;;7.77;100.00
4085;BME280;2057;50.858;6.572;2023-04-07T07:39:25;100367.94;;;7.80;100.00
4085;BME280;2057;50.858;6.572;2023-04-07T07:41:51;100372.38;;;7.84;100.00
4085;BME280;2057;50.858;6.572;2023-04-07T07:44:17;100375.44;;;7.79;100.00
4085;BME280;2057;50.858;6.572;2023-04-07T07:46:44;100367.19;;;7.68;100.00
4085;BME280;2057;50.858;6.572;2023-04-07T07:49:09;100373.56;;;7.76;100.00
4085;BME280;2057;50.858;6.572;2023-04-07T07:51:35;100380.75;;;7.83;100.00
4085;BME280;2057;50.858;6.572;2023-04-07T07:54:00;100381.78;;;7.72;100.00
4085;BME280;2057;50.858;6.572;2023-04-07T07:56:26;100373.56;;;7.76;100.00
4085;BME280;2057;50.858;6.572;2023-04-07T07:58:51;100379.25;;;7.72;100.00
4085;BME280;2057;50.858;6.572;2023-04-07T08:01:16;100377.44;;;7.84;100.00
4085;BME280;2057;50.858;6.572;2023-04-07T08:03:42;100379.00;;;7.82;100.00
4085;BME280;2057;50.858;6.572;2023-04-07T08:06:07;100379.84;;;7.83;100.00
4085;BME280;2057;50.858;6.572;2023-04-07T08:08:34;100374.81;;;7.98;100.00
4085;BME280;2057;50.858;6.572;2023-04-07T08:10:59;100376.50;;;7.97;100.00
4085;BME280;2057;50.858;6.572;2023-04-07T08:13:25;100388.25;;;7.97;100.00
4085;BME280;2057;50.858;6.572;2023-04-07T08:15:50;100380.66;;;7.97;100.00
4085;BME280;2057;50.858;6.572;2023-04-07T08:18:15;100394.88;;;7.95;100.00
4085;BME280;2057;50.858;6.572;2023-04-07T08:20:41;100387.81;;;8.04;100.00
4085;BME280;2057;50.858;6.572;2023-04-07T08:23:06;100387.53;;;7.99;100.00
4085;BME280;2057;50.858;6.572;2023-04-07T08:25:31;100387.28;;;8.10;100.00
4085;BME280;2057;50.858;6.572;2023-04-07T08:27:57;100400.03;;;8.11;100.00
4085;BME280;2057;50.858;6.572;2023-04-07T08:30:22;100402.03;;;8.17;100.00
4085;BME280;2057;50.858;6.572;2023-04-07T08:32:48;100398.72;;;8.18;100.00
4085;BME280;2057;50.858;6.572;2023-04-07T08:35:13;100405.00;;;8.25;100.00
4085;BME280;2057;50.858;6.572;2023-04-07T08:37:39;100405.00;;;8.25;100.00
4085;BME280;2057;50.858;6.572;2023-04-07T08:40:08;100400.63;;;8.37;100.00
4085;BME280;2057;50.858;6.572;2023-04-07T08:42:34;100409.38;;;8.27;100.00
4085;BME280;2057;50.858;6.572;2023-04-07T08:45:04;100402.38;;;8.38;100.00
4085;BME280;2057;50.858;6.572;2023-04-07T08:47:32;100407.63;;;8.41;100.00
4085;BME280;2057;50.858;6.572;2023-04-07T08:50:08;100407.81;;;8.44;100.00
4085;BME280;2057;50.858;6.572;2023-04-07T08:52:40;100421.94;;;8.26;100.00
4085;BME280;2057;50.858;6.572;2023-04-07T08:55:08;100424.34;;;8.24;100.00
4085;BME280;2057;50.858;6.572;2023-04-07T08:57:35;100429.00;;;8.16;100.00
4085;BME280;2057;50.858;6.572;2023-04-07T09:00:01;100429.94;;;8.04;100.00
4085;BME280;2057;50.858;6.572;2023-04-07T09:02:34;100433.94;;;8.00;100.00
4085;BME280;2057;50.858;6.572;2023-04-07T09:05:02;100435.50;;;7.98;100.00
4085;BME280;2057;50.858;6.572;2023-04-07T09:07:30;100445.34;;;7.93;100.00
4085;BME280;2057;50.858;6.572;2023-04-07T09:09:56;100433.59;;;8.09;100.00
4085;BME280;2057;50.858;6.572;2023-04-07T09:12:21;100437.16;;;8.12;100.00
4085;BME280;2057;50.858;6.572;2023-04-07T09:14:47;100433.78;;;8.12;100.00
4085;BME280;2057;50.858;6.572;2023-04-07T09:17:12;100438.47;;;8.21;100.00
4085;BME280;2057;50.858;6.572;2023-04-07T09:19:37;100439.44;;;8.23;100.00
4085;BME280;2057;50.858;6.572;2023-04-07T09:22:03;100433.16;;;8.31;100.00
4085;BME280;2057;50.858;6.572;2023-04-07T09:24:28;100430.31;;;8.40;100.00
4085;BME280;2057;50.858;6.572;2023-04-07T09:27:13;100436.47;;;8.30;100.00
4085;BME280;2057;50.858;6.572;2023-04-07T09:29:40;100432.06;;;8.56;100.00
4085;BME280;2057;50.858;6.572;2023-04-07T09:32:09;100441.47;;;8.58;100.00
4085;BME280;2057;50.858;6.572;2023-04-07T09:34:36;100443.16;;;8.58;100.00
4085;BME280;2057;50.858;6.572;2023-04-07T09:37:03;100432.25;;;8.59;100.00
4085;BME280;2057;50.858;6.572;2023-04-07T09:39:31;100442.16;;;8.71;100.00
4085;BME280;2057;50.858;6.572;2023-04-07T09:41:57;100431.59;;;8.63;100.00
4085;BME280;2057;50.858;6.572;2023-04-07T09:44:23;100432.41;;;8.62;100.00
4085;BME280;2057;50.858;6.572;2023-04-07T09:49:18;100432.03;;;8.71;100.00
4085;BME280;2057;50.858;6.572;2023-04-07T09:51:57;100435.75;;;8.61;100.00
4085;BME280;2057;50.858;6.572;2023-04-07T09:54:39;100433.81;;;8.57;100.00
4085;BME280;2057;50.858;6.572;2023-04-07T09:57:07;100439.84;;;8.59;100.00
4085;BME280;2057;50.858;6.572;2023-04-07T09:59:35;100438.69;;;8.69;100.00
4085;BME280;2057;50.858;6.572;2023-04-07T10:02:01;100439.47;;;8.68;100.00
4085;BME280;2057;50.858;6.572;2023-04-07T10:04:26;100440.63;;;8.58;100.00
4085;BME280;2057;50.858;6.572;2023-04-07T10:06:53;100435.63;;;8.74;100.00
4085;BME280;2057;50.858;6.572;2023-04-07T10:09:19;100440.41;;;8.85;100.00
4085;BME280;2057;50.858;6.572;2023-04-07T10:11:46;100443.38;;;8.77;100.00
4085;BME280;2057;50.858;6.572;2023-04-07T10:14:13;100438.31;;;8.77;100.00
4085;BME280;2057;50.858;6.572;2023-04-07T10:16:41;100440.06;;;8.78;100.00
4085;BME280;2057;50.858;6.572;2023-04-07T10:19:07;100446.91;;;8.65;100.00
4085;BME280;2057;50.858;6.572;2023-04-07T10:21:38;100455.63;;;8.55;100.00
4085;BME280;2057;50.858;6.572;2023-04-07T10:24:18;100451.88;;;8.48;100.00
4085;BME280;2057;50.858;6.572;2023-04-07T10:26:53;100451.25;;;8.52;100.00
4085;BME280;2057;50.858;6.572;2023-04-07T10:29:24;100448.47;;;8.47;100.00
4085;BME280;2057;50.858;6.572;2023-04-07T10:31:51;100454.69;;;8.53;100.00
4085;BME280;2057;50.858;6.572;2023-04-07T10:34:16;100454.56;;;8.81;100.00
4085;BME280;2057;50.858;6.572;2023-04-07T10:37:09;100453.13;;;8.86;100.00
4085;BME280;2057;50.858;6.572;2023-04-07T10:39:37;100455.19;;;9.08;100.00
4085;BME280;2057;50.858;6.572;2023-04-07T10:42:02;100463.63;;;8.92;100.00
4085;BME280;2057;50.858;6.572;2023-04-07T10:47:03;100459.16;;;8.88;100.00
4085;BME280;2057;50.858;6.572;2023-04-07T10:49:29;100466.94;;;8.91;100.00
4085;BME280;2057;50.858;6.572;2023-04-07T10:54:36;100455.78;;;8.88;100.00
4085;BME280;2057;50.858;6.572;2023-04-07T10:59:31;100462.91;;;8.95;100.00
4085;BME280;2057;50.858;6.572;2023-04-07T11:04:45;100475.00;;;8.84;100.00
4085;BME280;2057;50.858;6.572;2023-04-07T11:07:12;100476.63;;;8.84;100.00
4085;BME280;2057;50.858;6.572;2023-04-07T11:09:39;100461.91;;;8.76;100.00
4085;BME280;2057;50.858;6.572;2023-04-07T11:12:06;100471.94;;;8.75;100.00
4085;BME280;2057;50.858;6.572;2023-04-07T11:14:32;100470.34;;;8.77;100.00
4085;BME280;2057;50.858;6.572;2023-04-07T11:16:58;100482.75;;;8.72;100.00
4085;BME280;2057;50.858;6.572;2023-04-07T11:19:25;100472.53;;;8.71;100.00
4085;BME280;2057;50.858;6.572;2023-04-07T11:22:17;100475.53;;;8.78;100.00
4085;BME280;2057;50.858;6.572;2023-04-07T11:24:45;100477.53;;;8.84;100.00
4085;BME280;2057;50.858;6.572;2023-04-07T11:27:14;100479.22;;;9.00;100.00
4085;BME280;2057;50.858;6.572;2023-04-07T11:29:39;100474.34;;;9.03;100.00
4085;BME280;2057;50.858;6.572;2023-04-07T11:32:05;100475.31;;;9.05;100.00
4085;BME280;2057;50.858;6.572;2023-04-07T11:34:32;100477.28;;;9.11;100.00
4085;BME280;2057;50.858;6.572;2023-04-07T11:37:17;100478.81;;;9.24;100.00
4085;BME280;2057;50.858;6.572;2023-04-07T11:39:43;100479.63;;;9.23;100.00
4085;BME280;2057;50.858;6.572;2023-04-07T11:42:11;100487.38;;;9.26;100.00
4085;BME280;2057;50.858;6.572;2023-04-07T11:44:45;100479.06;;;9.29;100.00
4085;BME280;2057;50.858;6.572;2023-04-07T11:47:11;100481.59;;;9.29;100.00
4085;BME280;2057;50.858;6.572;2023-04-07T11:49:44;100486.91;;;9.33;100.00
4085;BME280;2057;50.858;6.572;2023-04-07T11:52:10;100487.59;;;9.46;100.00
4085;BME280;2057;50.858;6.572;2023-04-07T11:54:45;100489.28;;;9.30;100.00
4085;BME280;2057;50.858;6.572;2023-04-07T11:57:11;100495.00;;;9.42;100.00
4085;BME280;2057;50.858;6.572;2023-04-07T11:59:38;100499.59;;;9.50;100.00
4085;BME280;2057;50.858;6.572;2023-04-07T12:02:04;100506.41;;;9.51;100.00
4085;BME280;2057;50.858;6.572;2023-04-07T12:04:29;100506.78;;;9.57;100.00
4085;BME280;2057;50.858;6.572;2023-04-07T12:07:06;100502.03;;;9.63;100.00
4085;BME280;2057;50.858;6.572;2023-04-07T12:09:33;100513.94;;;9.81;100.00
4085;BME280;2057;50.858;6.572;2023-04-07T12:12:03;100505.53;;;9.82;100.00
4085;BME280;2057;50.858;6.572;2023-04-07T12:14:30;100501.00;;;9.76;100.00
4085;BME280;2057;50.858;6.572;2023-04-07T12:16:56;100512.88;;;9.61;100.00
4085;BME280;2057;50.858;6.572;2023-04-07T12:19:26;100508.22;;;9.85;100.00
4085;BME280;2057;50.858;6.572;2023-04-07T12:21:55;100511.50;;;9.67;100.00
4085;BME280;2057;50.858;6.572;2023-04-07T12:24:21;100509.47;;;9.77;100.00
4085;BME280;2057;50.858;6.572;2023-04-07T12:26:47;100509.88;;;9.68;100.00
4085;BME280;2057;50.858;6.572;2023-04-07T12:29:13;100517.53;;;9.69;100.00
4085;BME280;2057;50.858;6.572;2023-04-07T12:31:38;100515.91;;;9.70;100.00
4085;BME280;2057;50.858;6.572;2023-04-07T12:34:05;100515.25;;;9.74;100.00
4085;BME280;2057;50.858;6.572;2023-04-07T12:36:30;100514.72;;;9.80;100.00
4085;BME280;2057;50.858;6.572;2023-04-07T12:38:56;100523.75;;;9.75;100.00
4085;BME280;2057;50.858;6.572;2023-04-07T12:41:22;100523.94;;;9.63;100.00
4085;BME280;2057;50.858;6.572;2023-04-07T12:43:48;100523.31;;;9.50;100.00
4085;BME280;2057;50.858;6.572;2023-04-07T12:46:13;100526.88;;;9.54;100.00
4085;BME280;2057;50.858;6.572;2023-04-07T12:48:39;100526.28;;;9.75;100.00
4085;BME280;2057;50.858;6.572;2023-04-07T12:51:04;100522.63;;;9.69;100.00
4085;BME280;2057;50.858;6.572;2023-04-07T12:53:30;100525.88;;;9.67;100.00
4085;BME280;2057;50.858;6.572;2023-04-07T12:55:56;100526.13;;;9.71;100.00
4085;BME280;2057;50.858;6.572;2023-04-07T12:58:22;100523.88;;;9.78;100.00
4085;BME280;2057;50.858;6.572;2023-04-07T13:00:47;100524.06;;;9.81;100.00
4085;BME280;2057;50.858;6.572;2023-04-07T13:03:12;100527.31;;;9.78;100.00
4085;BME280;2057;50.858;6.572;2023-04-07T13:05:38;100526.59;;;9.81;100.00
4085;BME280;2057;50.858;6.572;2023-04-07T13:08:04;100527.69;;;9.69;100.00
4085;BME280;2057;50.858;6.572;2023-04-07T13:10:29;100534.44;;;9.85;100.00
4085;BME280;2057;50.858;6.572;2023-04-07T13:12:55;100528.66;;;9.88;100.00
4085;BME280;2057;50.858;6.572;2023-04-07T13:15:20;100526.44;;;9.78;100.00
4085;BME280;2057;50.858;6.572;2023-04-07T13:17:45;100529.94;;;9.80;100.00
4085;BME280;2057;50.858;6.572;2023-04-07T13:20:11;100528.13;;;9.94;100.00
4085;BME280;2057;50.858;6.572;2023-04-07T13:22:37;100532.31;;;10.10;100.00
4085;BME280;2057;50.858;6.572;2023-04-07T13:25:03;100525.66;;;10.12;100.00
4085;BME280;2057;50.858;6.572;2023-04-07T13:27:28;100532.78;;;10.19;100.00
4085;BME280;2057;50.858;6.572;2023-04-07T13:29:53;100534.22;;;9.97;100.00